Time;durP1;ratioP1;P1;durP2;ratioP2;P2;SDS_P1;SDS_P2;PMS_P1;PMS_P2;Temp;Humidity;BMP_temperature;BMP_pressure;BME280_temperature;BME280_humidity;BME280_pressure;Samples;Min_cycle;Max_cycle;Signal;HPM_P1;HPM_P2
2024/01/21 00:01:07;;;;;;;9.88;4.57;;;;;;;;;;5076350;28;20825;-63
2024/01/21 00:03:35;;;;;;;9.93;3.97;;;;;;;;;;5072757;28;20526;-63
2024/01/21 00:06:02;;;;;;;8.63;4.45;;;;;;;;;;5081274;28;20535;-63
2024/01/21 00:08:31;;;;;;;11.35;4.75;;;;;;;;;;5084740;28;20129;-63
2024/01/21 00:10:58;;;;;;;10.18;4.50;;;;;;;;;;5077693;28;20049;-63
2024/01/21 00:13:25;;;;;;;11.60;4.63;;;;;;;;;;5080987;28;20068;-63
2024/01/21 00:15:52;;;;;;;10.73;4.93;;;;;;;;;;5082872;28;20510;-63
2024/01/21 00:18:19;;;;;;;8.07;4.10;;;;;;;;;;5057282;28;20048;-63
2024/01/21 00:20:47;;;;;;;9.35;4.72;;;;;;;;;;5080705;28;20051;-64
2024/01/21 00:23:14;;;;;;;9.88;4.65;;;;;;;;;;5077333;28;20055;-63
2024/01/21 00:25:43;;;;;;;10.95;4.72;;;;;;;;;;5074849;28;20221;-63
2024/01/21 00:28:10;;;;;;;10.60;4.53;;;;;;;;;;5077011;28;20052;-63
2024/01/21 00:30:37;;;;;;;11.23;4.68;;;;;;;;;;5075271;28;20054;-64
2024/01/21 00:33:05;;;;;;;12.65;4.50;;;;;;;;;;5079100;28;20053;-63
2024/01/21 00:35:32;;;;;;;11.23;4.60;;;;;;;;;;5079456;28;20047;-64
2024/01/21 00:37:59;;;;;;;9.35;4.45;;;;;;;;;;5079513;28;20055;-63
2024/01/21 00:40:27;;;;;;;11.27;4.88;;;;;;;;;;5077347;28;20048;-63
2024/01/21 00:42:58;;;;;;;8.98;4.68;;;;;;;;;;5071944;28;20051;-63
2024/01/21 00:45:26;;;;;;;8.55;4.15;;;;;;;;;;5057725;28;20060;-63
2024/01/21 00:47:53;;;;;;;11.93;4.05;;;;;;;;;;5082496;28;20124;-63
2024/01/21 00:50:20;;;;;;;11.73;4.28;;;;;;;;;;5078301;28;20040;-63
2024/01/21 00:52:47;;;;;;;9.18;4.15;;;;;;;;;;5076137;28;20077;-63
2024/01/21 00:55:15;;;;;;;10.52;4.40;;;;;;;;;;5081200;28;20051;-63
2024/01/21 00:57:42;;;;;;;9.07;4.22;;;;;;;;;;5077717;28;20059;-63
2024/01/21 01:00:11;;;;;;;7.63;4.03;;;;;;;;;;5082170;28;20052;-63
2024/01/21 01:02:38;;;;;;;8.98;4.15;;;;;;;;;;5083526;28;20052;-64
2024/01/21 01:05:06;;;;;;;10.45;3.97;;;;;;;;;;5072088;28;20052;-64
2024/01/21 01:07:34;;;;;;;8.52;3.50;;;;;;;;;;5071409;28;20060;-63
2024/01/21 01:10:01;;;;;;;10.15;3.88;;;;;;;;;;5070754;28;20514;-63
2024/01/21 01:12:29;;;;;;;8.85;3.47;;;;;;;;;;5077510;28;20044;-63
2024/01/21 01:14:56;;;;;;;7.70;3.30;;;;;;;;;;5080512;28;20067;-63
2024/01/21 01:17:25;;;;;;;8.60;3.83;;;;;;;;;;5073021;28;20056;-63
2024/01/21 01:19:52;;;;;;;7.55;3.90;;;;;;;;;;5075830;28;20130;-63
2024/01/21 01:22:19;;;;;;;8.30;3.95;;;;;;;;;;5079583;28;20055;-63
2024/01/21 01:24:46;;;;;;;11.25;3.88;;;;;;;;;;5079401;28;20653;-63
2024/01/21 01:27:14;;;;;;;9.90;3.67;;;;;;;;;;5079356;28;20052;-64
2024/01/21 01:29:41;;;;;;;7.43;3.20;;;;;;;;;;5075431;28;20059;-63
2024/01/21 01:32:09;;;;;;;7.75;3.33;;;;;;;;;;5075934;28;20052;-63
2024/01/21 01:34:37;;;;;;;7.15;3.22;;;;;;;;;;5084085;28;20049;-63
2024/01/21 01:37:05;;;;;;;7.72;3.00;;;;;;;;;;5078744;28;20044;-63
2024/01/21 01:39:32;;;;;;;7.13;3.63;;;;;;;;;;5078032;28;20086;-63
2024/01/21 01:42:00;;;;;;;8.30;3.65;;;;;;;;;;5076242;28;20070;-63
2024/01/21 01:44:27;;;;;;;8.32;3.90;;;;;;;;;;5081697;28;20088;-63
2024/01/21 01:46:54;;;;;;;7.78;3.25;;;;;;;;;;5085214;28;20048;-63
2024/01/21 01:49:22;;;;;;;6.50;3.40;;;;;;;;;;5074140;28;20044;-63
2024/01/21 01:51:51;;;;;;;7.18;3.53;;;;;;;;;;5080671;28;20085;-64
2024/01/21 01:54:18;;;;;;;7.28;3.42;;;;;;;;;;5081465;28;20088;-63
2024/01/21 01:56:45;;;;;;;6.80;3.10;;;;;;;;;;5080123;28;20044;-64
2024/01/21 01:59:14;;;;;;;6.95;3.35;;;;;;;;;;5076075;28;20059;-64
2024/01/21 02:01:41;;;;;;;7.57;3.55;;;;;;;;;;5081783;28;20044;-63
2024/01/21 02:04:09;;;;;;;7.75;3.58;;;;;;;;;;5076703;28;20067;-63
2024/01/21 02:06:36;;;;;;;7.85;3.10;;;;;;;;;;5074548;28;20063;-63
2024/01/21 02:09:05;;;;;;;7.70;3.20;;;;;;;;;;5073813;28;20052;-63
2024/01/21 02:11:32;;;;;;;10.35;3.30;;;;;;;;;;5051401;28;20044;-63
2024/01/21 02:14:00;;;;;;;7.10;3.45;;;;;;;;;;5076261;28;20074;-63
2024/01/21 02:16:27;;;;;;;6.85;3.03;;;;;;;;;;5076623;28;20415;-64
2024/01/21 02:18:54;;;;;;;6.40;3.17;;;;;;;;;;5070575;28;20052;-63
2024/01/21 02:21:21;;;;;;;6.20;3.05;;;;;;;;;;5074779;28;20055;-63
2024/01/21 02:23:50;;;;;;;6.43;3.00;;;;;;;;;;5076865;28;20521;-63
2024/01/21 02:26:17;;;;;;;6.68;2.80;;;;;;;;;;5075837;28;20052;-63
2024/01/21 02:28:44;;;;;;;6.03;2.55;;;;;;;;;;5079568;28;20048;-63
2024/01/21 02:31:12;;;;;;;4.82;2.47;;;;;;;;;;5079140;28;20044;-63
2024/01/21 02:33:39;;;;;;;4.47;2.25;;;;;;;;;;5071902;28;20052;-63
2024/01/21 02:36:06;;;;;;;6.25;2.85;;;;;;;;;;5076819;28;20242;-63
2024/01/21 02:38:33;;;;;;;4.47;2.22;;;;;;;;;;5076995;28;20396;-64
2024/01/21 02:41:02;;;;;;;6.32;2.72;;;;;;;;;;5073104;28;20059;-63
2024/01/21 02:43:29;;;;;;;4.70;2.10;;;;;;;;;;5072831;28;20056;-63
2024/01/21 02:45:57;;;;;;;6.05;2.78;;;;;;;;;;5069990;28;20079;-64
2024/01/21 02:48:24;;;;;;;6.88;2.42;;;;;;;;;;5075134;28;20052;-63
2024/01/21 02:50:51;;;;;;;4.97;2.53;;;;;;;;;;5074389;28;20055;-63
2024/01/21 02:53:18;;;;;;;5.07;2.30;;;;;;;;;;5071178;28;20075;-63
2024/01/21 02:55:46;;;;;;;5.90;2.30;;;;;;;;;;5074703;28;20056;-63
2024/01/21 02:58:14;;;;;;;6.53;2.50;;;;;;;;;;5070242;28;20056;-63
2024/01/21 03:00:42;;;;;;;5.63;2.33;;;;;;;;;;5071692;28;20048;-63
2024/01/21 03:03:10;;;;;;;6.95;2.33;;;;;;;;;;5070407;28;20056;-64
2024/01/21 03:05:37;;;;;;;6.38;2.33;;;;;;;;;;5078338;28;20155;-63
2024/01/21 03:08:05;;;;;;;9.63;3.80;;;;;;;;;;5070966;28;20044;-63
2024/01/21 03:10:32;;;;;;;6.25;2.65;;;;;;;;;;5071748;28;20071;-64
2024/01/21 03:13:00;;;;;;;4.95;2.53;;;;;;;;;;5069153;28;20048;-63
2024/01/21 03:15:29;;;;;;;11.23;2.42;;;;;;;;;;5068465;28;20119;-63
2024/01/21 03:17:56;;;;;;;6.85;2.63;;;;;;;;;;5074344;28;20044;-63
2024/01/21 03:20:23;;;;;;;6.60;2.28;;;;;;;;;;5074896;28;20044;-64
2024/01/21 03:22:51;;;;;;;4.18;2.00;;;;;;;;;;5075024;28;20048;-63
2024/01/21 03:25:18;;;;;;;6.07;2.80;;;;;;;;;;5076437;28;20052;-64
2024/01/21 03:27:45;;;;;;;5.22;2.17;;;;;;;;;;5075524;28;20044;-63
2024/01/21 03:30:13;;;;;;;5.47;2.55;;;;;;;;;;5052641;28;20057;-63
2024/01/21 03:32:41;;;;;;;7.47;2.53;;;;;;;;;;5075667;28;20415;-63
2024/01/21 03:35:09;;;;;;;5.60;2.58;;;;;;;;;;5077031;28;20055;-64
2024/01/21 03:37:36;;;;;;;8.30;2.65;;;;;;;;;;5076142;28;20044;-63
2024/01/21 03:40:05;;;;;;;6.95;2.60;;;;;;;;;;5080414;28;20055;-63
2024/01/21 03:42:32;;;;;;;6.05;2.80;;;;;;;;;;5074877;28;20051;-63
2024/01/21 03:44:59;;;;;;;7.82;2.75;;;;;;;;;;5075928;28;20064;-63
2024/01/21 03:47:26;;;;;;;6.78;2.53;;;;;;;;;;5076847;28;20112;-63
2024/01/21 03:49:55;;;;;;;5.38;2.60;;;;;;;;;;5073217;28;20048;-63
2024/01/21 03:52:22;;;;;;;5.68;2.95;;;;;;;;;;5083740;28;20066;-63
2024/01/21 03:54:50;;;;;;;5.35;2.30;;;;;;;;;;5082839;28;20051;-63
2024/01/21 03:57:17;;;;;;;5.20;2.42;;;;;;;;;;5079619;28;20040;-64
2024/01/21 03:59:44;;;;;;;5.07;2.47;;;;;;;;;;5063787;28;20078;-63
2024/01/21 04:02:11;;;;;;;6.80;2.65;;;;;;;;;;5083173;28;20788;-63
2024/01/21 04:04:39;;;;;;;4.68;2.60;;;;;;;;;;5076464;28;20052;-63
2024/01/21 04:07:07;;;;;;;5.70;2.55;;;;;;;;;;5082672;28;20045;-63
2024/01/21 04:09:35;;;;;;;6.57;2.50;;;;;;;;;;5082371;28;20496;-64
2024/01/21 04:12:02;;;;;;;5.68;2.15;;;;;;;;;;5061469;28;20056;-63
2024/01/21 04:14:29;;;;;;;4.35;2.22;;;;;;;;;;5086282;28;20047;-63
2024/01/21 04:16:56;;;;;;;5.60;2.10;;;;;;;;;;5082831;28;20059;-63
2024/01/21 04:19:23;;;;;;;3.83;2.10;;;;;;;;;;5082831;28;20045;-63
2024/01/21 04:21:51;;;;;;;5.70;1.90;;;;;;;;;;5072301;28;20385;-63
2024/01/21 04:24:19;;;;;;;4.82;2.35;;;;;;;;;;5075219;28;20148;-63
2024/01/21 04:26:48;;;;;;;5.22;1.83;;;;;;;;;;5084985;28;20159;-63
2024/01/21 04:29:15;;;;;;;5.63;1.80;;;;;;;;;;5083964;28;20129;-63
2024/01/21 04:31:44;;;;;;;4.50;1.83;;;;;;;;;;5081507;28;20047;-63
2024/01/21 04:34:11;;;;;;;4.63;1.95;;;;;;;;;;5072757;28;20048;-63
2024/01/21 04:36:39;;;;;;;3.35;1.67;;;;;;;;;;5084167;28;20110;-63
2024/01/21 04:39:07;;;;;;;4.15;1.48;;;;;;;;;;5080475;28;20094;-63
2024/01/21 04:41:35;;;;;;;5.13;1.88;;;;;;;;;;5079765;28;20437;-65
2024/01/21 04:44:03;;;;;;;3.70;1.75;;;;;;;;;;5062527;28;20055;-64
2024/01/21 04:46:30;;;;;;;4.00;1.45;;;;;;;;;;5065011;28;20044;-63
2024/01/21 04:48:57;;;;;;;3.65;1.83;;;;;;;;;;5059803;28;20049;-63
2024/01/21 04:51:25;;;;;;;3.22;1.70;;;;;;;;;;5074297;28;20613;-63
2024/01/21 04:53:52;;;;;;;4.40;1.70;;;;;;;;;;5080573;28;20044;-63
2024/01/21 04:56:19;;;;;;;8.90;1.80;;;;;;;;;;5081577;28;20044;-63
2024/01/21 04:58:48;;;;;;;4.47;1.80;;;;;;;;;;5076736;28;20052;-63
2024/01/21 05:01:17;;;;;;;6.10;2.10;;;;;;;;;;5077654;28;20480;-63
2024/01/21 05:03:44;;;;;;;6.95;2.40;;;;;;;;;;5081616;28;20051;-64
2024/01/21 05:06:11;;;;;;;4.95;1.92;;;;;;;;;;5077532;28;20057;-63
2024/01/21 05:08:39;;;;;;;4.93;1.73;;;;;;;;;;5075414;28;20054;-63
2024/01/21 05:11:06;;;;;;;4.63;2.00;;;;;;;;;;5077603;28;20043;-63
2024/01/21 05:13:33;;;;;;;4.07;1.77;;;;;;;;;;5077541;28;20048;-63
2024/01/21 05:16:03;;;;;;;4.68;1.80;;;;;;;;;;5078700;28;20051;-63
2024/01/21 05:18:31;;;;;;;6.20;1.70;;;;;;;;;;5056550;28;20419;-63
2024/01/21 05:20:58;;;;;;;4.80;1.95;;;;;;;;;;5072201;28;20072;-63
2024/01/21 05:23:25;;;;;;;5.28;1.90;;;;;;;;;;5056208;28;20052;-63
2024/01/21 05:25:54;;;;;;;4.00;1.90;;;;;;;;;;5078085;28;20055;-63
2024/01/21 05:28:22;;;;;;;4.60;1.90;;;;;;;;;;5075768;28;20048;-63
2024/01/21 05:30:49;;;;;;;6.95;2.28;;;;;;;;;;5077607;28;20079;-63
2024/01/21 05:33:18;;;;;;;4.55;1.92;;;;;;;;;;5073151;28;20051;-63
2024/01/21 05:35:45;;;;;;;6.70;2.00;;;;;;;;;;5074688;28;20055;-63
2024/01/21 05:38:12;;;;;;;3.88;1.67;;;;;;;;;;5071786;28;20048;-64
2024/01/21 05:40:39;;;;;;;3.22;1.58;;;;;;;;;;5080098;28;20082;-63
2024/01/21 05:43:07;;;;;;;4.72;1.90;;;;;;;;;;5070091;28;20152;-64
2024/01/21 05:45:34;;;;;;;5.22;1.67;;;;;;;;;;5078522;28;20044;-63
2024/01/21 05:48:01;;;;;;;3.65;1.80;;;;;;;;;;5078824;28;20054;-63
2024/01/21 05:50:30;;;;;;;4.15;1.65;;;;;;;;;;5075849;28;20055;-63
2024/01/21 05:52:57;;;;;;;5.70;1.88;;;;;;;;;;5070765;28;20063;-63
2024/01/21 05:55:25;;;;;;;6.35;2.13;;;;;;;;;;5079708;28;20053;-63
2024/01/21 05:57:52;;;;;;;3.97;1.95;;;;;;;;;;5070108;28;20041;-63
2024/01/21 06:00:19;;;;;;;6.63;2.22;;;;;;;;;;5069969;28;20044;-63
2024/01/21 06:02:47;;;;;;;4.82;2.13;;;;;;;;;;5073454;28;20076;-63
2024/01/21 06:05:14;;;;;;;5.43;1.80;;;;;;;;;;5073704;28;20048;-64
2024/01/21 06:07:43;;;;;;;5.25;2.17;;;;;;;;;;5058279;28;20462;-63
2024/01/21 06:10:11;;;;;;;5.32;2.33;;;;;;;;;;5057337;28;20063;-63
2024/01/21 06:12:38;;;;;;;5.32;2.45;;;;;;;;;;5079665;28;20059;-63
2024/01/21 06:15:06;;;;;;;6.53;2.58;;;;;;;;;;5074558;28;20067;-64
2024/01/21 06:17:33;;;;;;;3.85;2.00;;;;;;;;;;5076770;28;21289;-63
2024/01/21 06:20:00;;;;;;;4.28;2.20;;;;;;;;;;5081793;28;20048;-64
2024/01/21 06:22:28;;;;;;;4.82;2.13;;;;;;;;;;5074120;28;20822;-63
2024/01/21 06:24:58;;;;;;;5.05;2.25;;;;;;;;;;5075531;28;20070;-63
2024/01/21 06:27:25;;;;;;;5.82;2.35;;;;;;;;;;5078382;28;20052;-63
2024/01/21 06:29:52;;;;;;;4.90;2.28;;;;;;;;;;5068213;28;20059;-63
2024/01/21 06:32:19;;;;;;;8.95;2.42;;;;;;;;;;5071041;28;20048;-63
2024/01/21 06:34:47;;;;;;;5.20;2.20;;;;;;;;;;5075869;28;20077;-64
2024/01/21 06:37:14;;;;;;;5.95;2.78;;;;;;;;;;5078919;28;20522;-63
2024/01/21 06:39:41;;;;;;;5.03;2.28;;;;;;;;;;5059300;28;20522;-64
2024/01/21 06:42:10;;;;;;;15.20;2.88;;;;;;;;;;5083037;28;20079;-63
2024/01/21 06:44:37;;;;;;;5.25;2.30;;;;;;;;;;5064563;28;20040;-64
2024/01/21 06:47:05;;;;;;;5.25;2.38;;;;;;;;;;5078318;28;20047;-63
2024/01/21 06:49:32;;;;;;;5.38;2.20;;;;;;;;;;5075677;28;20044;-64
2024/01/21 06:51:59;;;;;;;5.72;2.40;;;;;;;;;;5069878;28;20515;-63
2024/01/21 06:54:27;;;;;;;10.48;2.50;;;;;;;;;;5073429;28;20052;-63
2024/01/21 06:56:54;;;;;;;5.03;2.63;;;;;;;;;;5077481;28;20091;-63
2024/01/21 06:59:23;;;;;;;6.60;2.78;;;;;;;;;;5081358;28;20052;-63
2024/01/21 07:01:50;;;;;;;9.15;2.78;;;;;;;;;;5078558;28;20048;-63
2024/01/21 07:04:18;;;;;;;6.68;3.00;;;;;;;;;;5068783;28;20048;-63
2024/01/21 07:06:46;;;;;;;4.82;2.60;;;;;;;;;;5077125;28;20050;-63
2024/01/21 07:09:14;;;;;;;6.05;2.85;;;;;;;;;;5067580;28;20044;-63
2024/01/21 07:11:41;;;;;;;5.82;2.40;;;;;;;;;;5069342;28;20463;-63
2024/01/21 07:14:09;;;;;;;6.28;2.88;;;;;;;;;;5071482;28;20055;-63
2024/01/21 07:16:37;;;;;;;9.23;2.83;;;;;;;;;;5084886;28;20380;-63
2024/01/21 07:19:04;;;;;;;5.18;2.67;;;;;;;;;;5072076;28;20380;-63
2024/01/21 07:21:32;;;;;;;6.22;2.65;;;;;;;;;;5071883;28;20068;-63
2024/01/21 07:23:59;;;;;;;10.15;3.40;;;;;;;;;;5075601;28;20056;-63
2024/01/21 07:26:27;;;;;;;6.05;2.83;;;;;;;;;;5074688;28;20052;-63
2024/01/21 07:28:55;;;;;;;6.53;2.58;;;;;;;;;;5073012;28;20051;-63
2024/01/21 07:31:22;;;;;;;4.72;2.78;;;;;;;;;;5072892;28;20059;-63
2024/01/21 07:33:51;;;;;;;9.55;2.75;;;;;;;;;;5071458;28;20064;-64
2024/01/21 07:36:18;;;;;;;4.97;2.70;;;;;;;;;;5072182;28;20051;-63
2024/01/21 07:38:45;;;;;;;8.32;3.13;;;;;;;;;;5076193;28;20048;-64
2024/01/21 07:41:13;;;;;;;8.52;3.08;;;;;;;;;;5072045;28;20510;-63
2024/01/21 07:43:40;;;;;;;8.48;2.85;;;;;;;;;;5084033;28;20040;-63
2024/01/21 07:46:08;;;;;;;8.60;3.10;;;;;;;;;;5073026;28;20068;-63
2024/01/21 07:48:35;;;;;;;5.97;2.88;;;;;;;;;;5081267;28;20050;-63
2024/01/21 07:51:04;;;;;;;5.93;3.05;;;;;;;;;;5070474;28;20491;-63
2024/01/21 07:53:31;;;;;;;7.72;3.00;;;;;;;;;;5077810;28;20130;-63
2024/01/21 07:55:58;;;;;;;6.82;3.17;;;;;;;;;;5076481;28;20592;-63
2024/01/21 07:58:26;;;;;;;9.52;3.53;;;;;;;;;;5069639;28;20053;-63
2024/01/21 08:00:53;;;;;;;8.32;3.55;;;;;;;;;;5078278;28;20058;-63
2024/01/21 08:03:20;;;;;;;7.35;3.17;;;;;;;;;;5078031;28;20044;-63
2024/01/21 08:05:48;;;;;;;7.03;3.78;;;;;;;;;;5073751;28;20414;-63
2024/01/21 08:08:16;;;;;;;7.05;3.83;;;;;;;;;;5069952;28;20048;-63
2024/01/21 08:10:43;;;;;;;7.00;3.60;;;;;;;;;;5080346;28;20048;-63
2024/01/21 08:13:11;;;;;;;8.43;3.22;;;;;;;;;;5079928;28;20350;-63
2024/01/21 08:15:38;;;;;;;8.98;3.72;;;;;;;;;;5072463;28;20040;-63
2024/01/21 08:18:06;;;;;;;6.32;3.45;;;;;;;;;;5076707;28;20074;-64
2024/01/21 08:20:33;;;;;;;8.52;3.70;;;;;;;;;;5079326;28;20040;-63
2024/01/21 08:23:01;;;;;;;6.93;3.08;;;;;;;;;;5080981;28;20517;-63
2024/01/21 08:25:30;;;;;;;7.22;3.30;;;;;;;;;;5079527;28;20430;-63
2024/01/21 08:27:57;;;;;;;8.38;3.75;;;;;;;;;;5061296;28;20098;-63
2024/01/21 08:30:24;;;;;;;5.30;2.80;;;;;;;;;;5078734;28;20052;-63
2024/01/21 08:32:52;;;;;;;7.50;3.92;;;;;;;;;;5088827;28;20509;-63
2024/01/21 08:35:20;;;;;;;7.22;3.55;;;;;;;;;;5084519;28;21202;-63
2024/01/21 08:37:47;;;;;;;7.82;4.20;;;;;;;;;;5081717;28;20060;-63
2024/01/21 08:40:15;;;;;;;7.47;3.80;;;;;;;;;;5081048;28;20059;-63
2024/01/21 08:42:43;;;;;;;10.52;3.47;;;;;;;;;;5089924;28;20067;-64
2024/01/21 08:45:11;;;;;;;6.90;3.33;;;;;;;;;;5086321;28;20402;-64
2024/01/21 08:47:38;;;;;;;8.93;4.07;;;;;;;;;;5084415;28;21377;-63
2024/01/21 08:50:06;;;;;;;11.68;3.53;;;;;;;;;;5082060;28;20127;-63
2024/01/21 08:52:33;;;;;;;5.97;3.17;;;;;;;;;;5085162;28;20098;-63
2024/01/21 08:55:01;;;;;;;9.05;4.18;;;;;;;;;;5088750;28;20058;-63
2024/01/21 08:57:28;;;;;;;7.88;4.13;;;;;;;;;;5078748;28;20071;-63
2024/01/21 08:59:56;;;;;;;6.57;3.05;;;;;;;;;;5086681;28;20094;-63
2024/01/21 09:02:24;;;;;;;6.70;3.47;;;;;;;;;;5067064;28;20110;-63
2024/01/21 09:04:51;;;;;;;10.32;3.53;;;;;;;;;;5089357;28;20048;-63
2024/01/21 09:07:20;;;;;;;9.40;3.75;;;;;;;;;;5058807;28;20044;-63
2024/01/21 09:09:47;;;;;;;9.23;3.58;;;;;;;;;;5088736;28;20048;-63
2024/01/21 09:12:15;;;;;;;6.93;3.78;;;;;;;;;;5085957;28;20087;-63
2024/01/21 09:14:42;;;;;;;7.97;3.88;;;;;;;;;;5078471;28;20044;-63
2024/01/21 09:17:11;;;;;;;8.25;3.80;;;;;;;;;;5078377;28;20614;-63
2024/01/21 09:19:38;;;;;;;6.50;3.63;;;;;;;;;;5085215;28;20086;-63
2024/01/21 09:22:06;;;;;;;9.30;4.45;;;;;;;;;;5081363;28;20052;-64
2024/01/21 09:24:33;;;;;;;8.02;4.10;;;;;;;;;;5066890;28;20499;-64
2024/01/21 09:27:01;;;;;;;8.57;4.18;;;;;;;;;;5086963;28;20067;-63
2024/01/21 09:29:28;;;;;;;8.77;3.80;;;;;;;;;;5085145;28;20415;-63
2024/01/21 09:31:56;;;;;;;9.48;3.92;;;;;;;;;;5085940;28;20058;-63
2024/01/21 09:34:24;;;;;;;6.78;3.40;;;;;;;;;;5080963;28;20511;-64
2024/01/21 09:36:52;;;;;;;7.88;3.65;;;;;;;;;;5071124;28;20051;-63
2024/01/21 09:39:19;;;;;;;7.20;3.30;;;;;;;;;;5081390;28;20044;-63
2024/01/21 09:41:49;;;;;;;7.35;3.58;;;;;;;;;;5070469;28;20131;-63
2024/01/21 09:44:17;;;;;;;8.45;3.97;;;;;;;;;;5087620;28;20048;-64
2024/01/21 09:46:44;;;;;;;8.25;3.83;;;;;;;;;;5083835;28;20098;-63
2024/01/21 09:49:12;;;;;;;8.27;4.25;;;;;;;;;;5058160;28;20062;-63
2024/01/21 09:51:42;;;;;;;7.22;4.03;;;;;;;;;;5077576;28;20052;-63
2024/01/21 09:54:09;;;;;;;6.85;4.10;;;;;;;;;;5086623;28;20200;-63
2024/01/21 09:56:37;;;;;;;8.20;4.20;;;;;;;;;;5076398;28;20048;-63
2024/01/21 09:59:05;;;;;;;7.55;3.80;;;;;;;;;;5066160;28;20548;-64
2024/01/21 10:01:32;;;;;;;8.73;4.30;;;;;;;;;;5073483;28;20052;-63
2024/01/21 10:04:00;;;;;;;7.93;4.72;;;;;;;;;;5074285;28;20048;-64
2024/01/21 10:06:27;;;;;;;7.85;4.50;;;;;;;;;;5073080;28;20048;-64
2024/01/21 10:09:11;;;;;;;7.57;3.42;;;;;;;;;;5065495;28;20062;-64
2024/01/21 10:11:39;;;;;;;11.38;4.13;;;;;;;;;;5081958;28;20047;-63
2024/01/21 10:14:06;;;;;;;10.25;4.30;;;;;;;;;;5077023;28;20426;-63
2024/01/21 10:16:33;;;;;;;8.30;4.53;;;;;;;;;;5082777;28;20502;-63
2024/01/21 10:19:02;;;;;;;9.63;4.38;;;;;;;;;;5075320;28;20054;-63
2024/01/21 10:21:30;;;;;;;9.52;5.65;;;;;;;;;;5075661;28;20404;-64
2024/01/21 10:23:58;;;;;;;11.95;4.30;;;;;;;;;;5078130;28;20043;-63
2024/01/21 10:26:26;;;;;;;8.10;3.97;;;;;;;;;;5075208;28;20048;-63
2024/01/21 10:28:53;;;;;;;9.65;4.40;;;;;;;;;;5074393;28;20143;-64
2024/01/21 10:31:20;;;;;;;9.07;4.32;;;;;;;;;;5080750;28;20407;-64
2024/01/21 10:33:48;;;;;;;9.15;4.43;;;;;;;;;;5078905;28;20054;-64
2024/01/21 10:36:16;;;;;;;10.13;4.45;;;;;;;;;;5072335;28;20048;-64
2024/01/21 10:38:49;;;;;;;8.13;4.13;;;;;;;;;;5077450;28;20386;-64
2024/01/21 10:41:22;;;;;;;8.80;4.70;;;;;;;;;;5079253;28;20044;-64
2024/01/21 10:43:50;;;;;;;9.32;4.53;;;;;;;;;;5076659;28;20056;-64
2024/01/21 10:46:17;;;;;;;7.63;4.53;;;;;;;;;;5078191;28;20048;-63
2024/01/21 10:48:45;;;;;;;10.98;5.05;;;;;;;;;;5079113;28;20055;-64
2024/01/21 10:51:12;;;;;;;9.63;4.05;;;;;;;;;;5071755;28;20067;-64
2024/01/21 10:53:40;;;;;;;10.38;4.13;;;;;;;;;;5069890;28;20049;-63
2024/01/21 10:56:08;;;;;;;10.30;5.53;;;;;;;;;;5079990;28;20052;-64
2024/01/21 10:58:37;;;;;;;10.40;3.95;;;;;;;;;;5075056;28;20056;-63
2024/01/21 11:01:06;;;;;;;8.70;4.43;;;;;;;;;;5071775;28;20071;-64
2024/01/21 11:03:35;;;;;;;11.80;5.28;;;;;;;;;;5075765;28;20082;-64
2024/01/21 11:06:05;;;;;;;8.93;4.47;;;;;;;;;;5067793;28;20049;-63
2024/01/21 11:08:33;;;;;;;10.32;5.03;;;;;;;;;;5077927;28;20495;-64
2024/01/21 11:11:03;;;;;;;9.93;4.97;;;;;;;;;;5070090;28;20055;-64
2024/01/21 11:13:41;;;;;;;8.68;4.28;;;;;;;;;;5079786;28;20055;-64
2024/01/21 11:16:11;;;;;;;11.18;4.85;;;;;;;;;;5079135;28;20055;-64
2024/01/21 11:18:38;;;;;;;12.05;5.00;;;;;;;;;;5070895;28;20067;-64
2024/01/21 11:21:05;;;;;;;9.65;4.97;;;;;;;;;;5074279;28;20051;-64
2024/01/21 11:23:34;;;;;;;11.00;4.90;;;;;;;;;;5079517;28;20056;-63
2024/01/21 11:26:02;;;;;;;11.00;5.40;;;;;;;;;;5077883;28;20044;-64
2024/01/21 11:28:30;;;;;;;12.20;5.03;;;;;;;;;;5075611;28;20766;-64
2024/01/21 11:31:07;;;;;;;11.65;4.65;;;;;;;;;;5069570;28;20083;-63
2024/01/21 11:33:34;;;;;;;8.82;4.43;;;;;;;;;;5073384;28;20052;-63
2024/01/21 11:36:02;;;;;;;9.43;5.18;;;;;;;;;;5080816;28;20044;-64
2024/01/21 11:38:29;;;;;;;9.43;4.85;;;;;;;;;;5086633;28;20071;-64
2024/01/21 11:41:06;;;;;;;12.00;4.88;;;;;;;;;;5079757;28;20044;-64
2024/01/21 11:43:33;;;;;;;17.83;5.78;;;;;;;;;;5076971;28;20048;-64
2024/01/21 11:46:02;;;;;;;11.48;5.32;;;;;;;;;;5073869;28;20407;-63
2024/01/21 11:48:31;;;;;;;12.52;5.68;;;;;;;;;;5078783;28;20502;-63
2024/01/21 11:50:59;;;;;;;12.20;5.82;;;;;;;;;;5070189;28;20169;-63
2024/01/21 11:53:26;;;;;;;12.20;5.70;;;;;;;;;;5078870;28;20457;-64
2024/01/21 11:55:54;;;;;;;13.05;5.78;;;;;;;;;;5080224;28;20052;-64
2024/01/21 11:58:21;;;;;;;11.40;5.70;;;;;;;;;;5081149;28;20044;-64
2024/01/21 12:00:48;;;;;;;12.32;6.28;;;;;;;;;;5082789;28;20101;-64
2024/01/21 12:03:15;;;;;;;13.60;5.93;;;;;;;;;;5078321;28;20060;-64
2024/01/21 12:05:45;;;;;;;10.20;5.75;;;;;;;;;;5080669;28;20059;-64
2024/01/21 12:08:13;;;;;;;11.00;6.55;;;;;;;;;;5062999;28;20511;-64
2024/01/21 12:10:41;;;;;;;13.15;6.03;;;;;;;;;;5085568;28;20048;-64
2024/01/21 12:13:08;;;;;;;15.00;6.80;;;;;;;;;;5081684;28;20344;-63
2024/01/21 12:15:37;;;;;;;14.35;6.63;;;;;;;;;;5086031;28;20055;-63
2024/01/21 12:18:05;;;;;;;13.63;5.85;;;;;;;;;;5079679;28;20139;-64
2024/01/21 12:20:33;;;;;;;16.25;7.55;;;;;;;;;;5089206;28;20043;-64
2024/01/21 12:23:01;;;;;;;13.63;6.60;;;;;;;;;;5076878;28;20059;-64
2024/01/21 12:25:30;;;;;;;13.77;7.13;;;;;;;;;;5080523;28;20095;-64
2024/01/21 12:28:00;;;;;;;16.25;6.68;;;;;;;;;;5060888;28;20094;-63
2024/01/21 12:30:28;;;;;;;17.10;7.78;;;;;;;;;;5083282;28;20171;-64
2024/01/21 12:32:55;;;;;;;17.35;7.20;;;;;;;;;;5079861;28;20076;-64
2024/01/21 12:35:23;;;;;;;14.10;7.38;;;;;;;;;;5087846;28;20070;-64
2024/01/21 12:37:50;;;;;;;14.43;6.90;;;;;;;;;;5061441;28;20062;-64
2024/01/21 12:40:19;;;;;;;15.00;7.40;;;;;;;;;;5076089;28;20372;-64
2024/01/21 12:42:46;;;;;;;13.73;7.20;;;;;;;;;;5085291;28;20120;-64
2024/01/21 12:45:14;;;;;;;15.20;6.93;;;;;;;;;;5073542;28;20503;-64
2024/01/21 12:47:41;;;;;;;17.63;7.25;;;;;;;;;;5080788;28;20048;-63
2024/01/21 12:50:10;;;;;;;13.73;7.88;;;;;;;;;;5078888;28;20051;-63
2024/01/21 12:52:37;;;;;;;15.25;7.78;;;;;;;;;;5086950;28;20058;-64
2024/01/21 12:55:05;;;;;;;17.38;7.50;;;;;;;;;;5084180;28;20052;-63
2024/01/21 12:57:34;;;;;;;15.00;6.85;;;;;;;;;;5078335;28;20055;-64
2024/01/21 13:00:03;;;;;;;14.38;6.88;;;;;;;;;;5078963;28;20048;-64
2024/01/21 13:02:30;;;;;;;17.08;6.90;;;;;;;;;;5080135;28;20052;-64
2024/01/21 13:04:57;;;;;;;18.67;6.95;;;;;;;;;;5079725;28;20044;-64
2024/01/21 13:07:25;;;;;;;19.35;7.57;;;;;;;;;;5062689;28;20060;-63
2024/01/21 13:09:52;;;;;;;19.63;8.05;;;;;;;;;;5087239;28;20055;-64
2024/01/21 13:12:19;;;;;;;18.42;7.65;;;;;;;;;;5078452;28;20044;-63
2024/01/21 13:14:48;;;;;;;20.58;8.25;;;;;;;;;;5071409;28;20411;-64
2024/01/21 13:17:15;;;;;;;16.02;8.15;;;;;;;;;;5082359;28;20510;-64
2024/01/21 13:19:42;;;;;;;15.43;7.68;;;;;;;;;;5079909;28;20048;-64
2024/01/21 13:22:10;;;;;;;16.23;7.93;;;;;;;;;;5076013;28;20509;-63
2024/01/21 13:24:37;;;;;;;23.95;8.63;;;;;;;;;;5080673;28;20058;-64
2024/01/21 13:27:11;;;;;;;22.27;8.23;;;;;;;;;;5079228;28;20370;-64
2024/01/21 13:32:36;;;;;;;14.57;6.97;;;;;;;;;;5035588;28;20068;-63
2024/01/21 13:35:04;;;;;;;17.15;6.35;;;;;;;;;;5047933;28;20488;-63
2024/01/21 13:37:31;;;;;;;12.95;6.10;;;;;;;;;;5076652;28;20347;-64
2024/01/21 13:39:58;;;;;;;15.13;7.00;;;;;;;;;;5079443;28;20542;-64
2024/01/21 13:42:26;;;;;;;14.60;7.20;;;;;;;;;;5081831;28;20066;-63
2024/01/21 13:44:53;;;;;;;15.90;7.22;;;;;;;;;;5082683;28;20040;-63
2024/01/21 13:47:20;;;;;;;14.95;6.97;;;;;;;;;;5085787;28;20050;-64
2024/01/21 13:49:49;;;;;;;13.90;7.47;;;;;;;;;;5074367;28;20060;-63
2024/01/21 13:52:16;;;;;;;13.43;6.82;;;;;;;;;;5072811;28;20142;-63
2024/01/21 13:54:43;;;;;;;15.10;6.55;;;;;;;;;;5081031;28;20138;-64
2024/01/21 13:57:11;;;;;;;19.63;7.63;;;;;;;;;;5085929;28;20079;-64
2024/01/21 13:59:38;;;;;;;19.45;7.45;;;;;;;;;;5075745;28;20049;-64
2024/01/21 14:02:07;;;;;;;15.73;6.18;;;;;;;;;;5057265;28;20158;-64
2024/01/21 14:04:35;;;;;;;12.73;5.72;;;;;;;;;;5075689;28;20044;-63
2024/01/21 14:07:03;;;;;;;14.15;6.80;;;;;;;;;;5081407;28;20060;-64
2024/01/21 14:09:31;;;;;;;17.30;7.28;;;;;;;;;;5076662;28;20052;-64
2024/01/21 14:11:58;;;;;;;16.00;6.93;;;;;;;;;;5081364;28;20052;-64
2024/01/21 14:14:26;;;;;;;17.30;6.88;;;;;;;;;;5057099;28;20136;-63
2024/01/21 14:16:53;;;;;;;18.63;6.82;;;;;;;;;;5087472;28;20075;-63
2024/01/21 14:19:20;;;;;;;16.55;7.00;;;;;;;;;;5079044;28;20452;-64
2024/01/21 14:21:48;;;;;;;19.02;8.07;;;;;;;;;;5058487;28;20044;-63
2024/01/21 14:24:17;;;;;;;13.98;7.07;;;;;;;;;;5076764;28;20053;-64
2024/01/21 14:26:45;;;;;;;19.30;6.70;;;;;;;;;;5082347;28;20044;-63
2024/01/21 14:29:14;;;;;;;13.88;6.45;;;;;;;;;;5075236;28;20055;-64
2024/01/21 14:31:41;;;;;;;13.65;6.57;;;;;;;;;;5072322;28;20048;-63
2024/01/21 14:34:11;;;;;;;15.85;6.00;;;;;;;;;;5078616;28;20050;-64
2024/01/21 14:36:38;;;;;;;16.13;6.50;;;;;;;;;;5081216;28;20110;-63
2024/01/21 14:39:06;;;;;;;20.17;7.28;;;;;;;;;;5078822;28;20056;-64
2024/01/21 14:41:34;;;;;;;19.52;6.32;;;;;;;;;;5074668;28;20051;-64
2024/01/21 14:44:02;;;;;;;15.45;7.43;;;;;;;;;;5077844;28;20067;-64